This is the latest recevied weather packets stored in our database for station/object AJ5AG. If no packets are shown the sender has not sent any weather packets the latest 10 day(s).
| Time | Temp. | Humidity | Pressure | Rain* | Wind** | Luminosity | Snow |
|---|---|---|---|---|---|---|---|
| 1777563320 | 20.56° C | 97% | 1014.2 hPa | 0 mm | - | 76 W/m² | - |
| 1777563017 | 20.56° C | 97% | 1014.2 hPa | 0 mm | - | 94 W/m² | - |
| 1777562713 | 20.56° C | 97% | 1014.3 hPa | 0 mm | - | 94 W/m² | - |
| 1777562412 | 20.56° C | 97% | 1014.3 hPa | 0 mm | - | 73 W/m² | - |
| 1777562109 | 20.56° C | 97% | 1014.1 hPa | 0 mm | - | 94 W/m² | - |
| 1777561806 | 20.56° C | 97% | 1014 hPa | 0 mm | - | 114 W/m² | - |
| 1777561502 | 20.56° C | 97% | 1014.5 hPa | 0 mm | - | 59 W/m² | - |
| 1777561196 | 20.56° C | 97% | - | 0 mm | - | - | - |
| 1777392924 | 29.44° C | 66% | 1016.6 hPa | 0 mm | - | 627 W/m² | - |
| 1777392619 | 29.44° C | 66% | 1016.6 hPa | 0 mm | - | 627 W/m² | - |
| 1777392315 | 29.44° C | 68% | 1016.7 hPa | 0 mm | - | 562 W/m² | - |
| 1777392010 | 28.89° C | 69% | 1016.7 hPa | 0 mm | - | 389 W/m² | - |
| 1777391710 | 28.89° C | 70% | 1016.6 hPa | 0 mm | - | 376 W/m² | - |
| 1777391407 | 28.89° C | 72% | 1016.7 hPa | 0 mm | - | 370 W/m² | - |
| 1777391103 | 28.33° C | 72% | 1016.3 hPa | 0 mm | - | 446 W/m² | - |
| 1777390800 | 28.33° C | 73% | 1016.6 hPa | 0 mm | - | 394 W/m² | - |
| 1777390496 | 27.78° C | 74% | 1016.5 hPa | 0 mm | - | 342 W/m² | - |
| 1777390193 | 27.78° C | 77% | 1016.7 hPa | 0 mm | - | 290 W/m² | - |
| 1777389889 | 27.78° C | 76% | 1016.7 hPa | 0 mm | - | 215 W/m² | - |
| 1777389586 | 27.78° C | 76% | 1016.5 hPa | 0 mm | - | 206 W/m² | - |
| 1777389283 | 27.22° C | 78% | 1016.3 hPa | 0 mm | - | 348 W/m² | - |
| 1777388981 | 27.22° C | 78% | 1016.4 hPa | 0 mm | - | 276 W/m² | - |
| 1777388677 | 27.22° C | 78% | 1016.5 hPa | 0 mm | - | 309 W/m² | - |
| 1777388374 | 27.22° C | 79% | 1016.5 hPa | 0 mm | - | 210 W/m² | - |
| 1777388074 | 26.67° C | 79% | 1016.4 hPa | 0 mm | - | 259 W/m² | - |
* Rain latest hour (hover to see other rain measurements)
** Current wind speed in m/s (hover to see current wind gust speed)